sensor_id;sensor_type;location;lat;lon;timestamp;temperature;humidity
60868;DHT22;46702;48.370;10.794;2022-12-22T00:00:36;3.40;99.90
60868;DHT22;46702;48.370;10.794;2022-12-22T00:03:20;3.50;99.90
60868;DHT22;46702;48.370;10.794;2022-12-22T00:06:08;3.50;99.90
60868;DHT22;46702;48.370;10.794;2022-12-22T00:08:53;3.50;99.90
60868;DHT22;46702;48.370;10.794;2022-12-22T00:11:37;3.50;99.90
60868;DHT22;46702;48.370;10.794;2022-12-22T00:14:21;3.50;99.90
60868;DHT22;46702;48.370;10.794;2022-12-22T00:17:22;3.50;99.90
60868;DHT22;46702;48.370;10.794;2022-12-22T00:20:14;3.30;99.90
60868;DHT22;46702;48.370;10.794;2022-12-22T00:22:59;3.00;99.90
60868;DHT22;46702;48.370;10.794;2022-12-22T00:25:43;3.10;99.90
60868;DHT22;46702;48.370;10.794;2022-12-22T00:28:27;2.90;99.90
60868;DHT22;46702;48.370;10.794;2022-12-22T00:31:12;2.80;99.90
60868;DHT22;46702;48.370;10.794;2022-12-22T00:33:56;2.90;99.90
60868;DHT22;46702;48.370;10.794;2022-12-22T00:36:41;2.90;99.90
60868;DHT22;46702;48.370;10.794;2022-12-22T00:39:25;3.00;99.90
60868;DHT22;46702;48.370;10.794;2022-12-22T00:42:09;2.90;99.90
60868;DHT22;46702;48.370;10.794;2022-12-22T00:44:53;2.80;99.90
60868;DHT22;46702;48.370;10.794;2022-12-22T00:47:38;2.60;99.90
60868;DHT22;46702;48.370;10.794;2022-12-22T00:50:28;2.50;99.90
60868;DHT22;46702;48.370;10.794;2022-12-22T00:53:14;2.50;99.90
60868;DHT22;46702;48.370;10.794;2022-12-22T00:55:58;2.50;99.90
60868;DHT22;46702;48.370;10.794;2022-12-22T00:58:42;2.60;99.90
60868;DHT22;46702;48.370;10.794;2022-12-22T01:01:26;2.60;99.90
60868;DHT22;46702;48.370;10.794;2022-12-22T01:04:11;2.70;99.90
60868;DHT22;46702;48.370;10.794;2022-12-22T01:06:56;2.70;99.90
60868;DHT22;46702;48.370;10.794;2022-12-22T01:09:41;2.80;99.90
60868;DHT22;46702;48.370;10.794;2022-12-22T01:12:28;2.90;99.90
60868;DHT22;46702;48.370;10.794;2022-12-22T01:15:18;2.80;99.90
60868;DHT22;46702;48.370;10.794;2022-12-22T01:18:03;2.60;99.90
60868;DHT22;46702;48.370;10.794;2022-12-22T01:20:47;2.50;99.90
60868;DHT22;46702;48.370;10.794;2022-12-22T01:23:32;2.70;99.90
60868;DHT22;46702;48.370;10.794;2022-12-22T01:26:16;2.70;99.90
60868;DHT22;46702;48.370;10.794;2022-12-22T01:29:00;2.70;99.90
60868;DHT22;46702;48.370;10.794;2022-12-22T01:31:44;2.70;99.90
60868;DHT22;46702;48.370;10.794;2022-12-22T01:34:28;2.70;99.90
60868;DHT22;46702;48.370;10.794;2022-12-22T01:37:12;2.70;99.90
60868;DHT22;46702;48.370;10.794;2022-12-22T01:39:56;2.70;99.90
60868;DHT22;46702;48.370;10.794;2022-12-22T01:42:40;2.70;99.90
60868;DHT22;46702;48.370;10.794;2022-12-22T01:45:34;2.70;99.90
60868;DHT22;46702;48.370;10.794;2022-12-22T01:48:22;2.70;99.90
60868;DHT22;46702;48.370;10.794;2022-12-22T01:51:12;2.70;99.90
60868;DHT22;46702;48.370;10.794;2022-12-22T01:53:58;2.70;99.90
60868;DHT22;46702;48.370;10.794;2022-12-22T01:56:44;2.60;99.90
60868;DHT22;46702;48.370;10.794;2022-12-22T01:59:28;2.60;99.90
60868;DHT22;46702;48.370;10.794;2022-12-22T02:02:13;2.60;99.90
60868;DHT22;46702;48.370;10.794;2022-12-22T02:05:00;2.60;99.90
60868;DHT22;46702;48.370;10.794;2022-12-22T02:14:26;2.50;99.90
60868;DHT22;46702;48.370;10.794;2022-12-22T02:17:20;2.40;99.90
60868;DHT22;46702;48.370;10.794;2022-12-22T02:20:40;2.40;99.90
60868;DHT22;46702;48.370;10.794;2022-12-22T02:23:33;2.50;99.90
60868;DHT22;46702;48.370;10.794;2022-12-22T02:26:29;2.60;99.90
60868;DHT22;46702;48.370;10.794;2022-12-22T02:29:17;2.70;99.90
60868;DHT22;46702;48.370;10.794;2022-12-22T02:32:03;2.80;99.90
60868;DHT22;46702;48.370;10.794;2022-12-22T02:34:47;2.90;99.90
60868;DHT22;46702;48.370;10.794;2022-12-22T02:40:33;3.00;99.90
60868;DHT22;46702;48.370;10.794;2022-12-22T02:46:33;3.20;99.90
60868;DHT22;46702;48.370;10.794;2022-12-22T02:49:26;3.60;99.90
60868;DHT22;46702;48.370;10.794;2022-12-22T02:52:18;4.20;99.90
60868;DHT22;46702;48.370;10.794;2022-12-22T02:55:05;3.90;99.90
60868;DHT22;46702;48.370;10.794;2022-12-22T02:57:50;3.70;99.90
60868;DHT22;46702;48.370;10.794;2022-12-22T03:00:36;3.90;99.90
60868;DHT22;46702;48.370;10.794;2022-12-22T03:03:20;4.30;99.90
60868;DHT22;46702;48.370;10.794;2022-12-22T03:06:05;4.30;99.90
60868;DHT22;46702;48.370;10.794;2022-12-22T03:08:49;4.30;99.90
60868;DHT22;46702;48.370;10.794;2022-12-22T03:11:33;4.50;99.90
60868;DHT22;46702;48.370;10.794;2022-12-22T03:14:17;4.60;99.90
60868;DHT22;46702;48.370;10.794;2022-12-22T03:17:02;5.00;99.90
60868;DHT22;46702;48.370;10.794;2022-12-22T03:19:46;5.10;99.90
60868;DHT22;46702;48.370;10.794;2022-12-22T03:22:30;5.20;99.90
60868;DHT22;46702;48.370;10.794;2022-12-22T03:25:14;5.30;99.90
60868;DHT22;46702;48.370;10.794;2022-12-22T03:28:02;5.40;99.90
60868;DHT22;46702;48.370;10.794;2022-12-22T03:30:28;5.40;99.90
60868;DHT22;46702;48.370;10.794;2022-12-22T03:32:54;5.50;99.90
60868;DHT22;46702;48.370;10.794;2022-12-22T03:35:19;5.50;99.90
60868;DHT22;46702;48.370;10.794;2022-12-22T03:37:45;5.70;99.90
60868;DHT22;46702;48.370;10.794;2022-12-22T03:40:10;5.70;99.90
60868;DHT22;46702;48.370;10.794;2022-12-22T03:42:36;5.80;99.90
60868;DHT22;46702;48.370;10.794;2022-12-22T03:45:20;5.70;99.90
60868;DHT22;46702;48.370;10.794;2022-12-22T03:48:05;5.70;99.90
60868;DHT22;46702;48.370;10.794;2022-12-22T03:50:30;5.70;99.90
60868;DHT22;46702;48.370;10.794;2022-12-22T03:52:56;5.80;99.90
60868;DHT22;46702;48.370;10.794;2022-12-22T03:55:21;5.80;99.90
60868;DHT22;46702;48.370;10.794;2022-12-22T03:57:47;5.80;99.90
60868;DHT22;46702;48.370;10.794;2022-12-22T04:00:13;5.90;99.90
60868;DHT22;46702;48.370;10.794;2022-12-22T04:02:39;5.90;99.90
60868;DHT22;46702;48.370;10.794;2022-12-22T04:05:04;6.00;99.90
60868;DHT22;46702;48.370;10.794;2022-12-22T04:07:30;6.00;99.90
60868;DHT22;46702;48.370;10.794;2022-12-22T04:09:56;6.10;99.90
60868;DHT22;46702;48.370;10.794;2022-12-22T04:12:40;6.20;99.90
60868;DHT22;46702;48.370;10.794;2022-12-22T04:15:22;6.10;99.90
60868;DHT22;46702;48.370;10.794;2022-12-22T04:17:48;6.10;99.90
60868;DHT22;46702;48.370;10.794;2022-12-22T04:20:14;6.20;99.90
60868;DHT22;46702;48.370;10.794;2022-12-22T04:22:39;6.30;99.90
60868;DHT22;46702;48.370;10.794;2022-12-22T04:25:05;6.30;99.90
60868;DHT22;46702;48.370;10.794;2022-12-22T04:27:31;6.30;99.90
60868;DHT22;46702;48.370;10.794;2022-12-22T04:29:57;6.30;99.90
60868;DHT22;46702;48.370;10.794;2022-12-22T04:32:22;6.30;99.90
60868;DHT22;46702;48.370;10.794;2022-12-22T04:34:48;6.30;99.90
60868;DHT22;46702;48.370;10.794;2022-12-22T04:37:13;6.30;99.90
60868;DHT22;46702;48.370;10.794;2022-12-22T04:39:39;6.50;99.90
60868;DHT22;46702;48.370;10.794;2022-12-22T04:42:04;6.50;99.90
60868;DHT22;46702;48.370;10.794;2022-12-22T04:44:30;6.40;99.90
60868;DHT22;46702;48.370;10.794;2022-12-22T04:46:55;6.50;99.90
60868;DHT22;46702;48.370;10.794;2022-12-22T04:49:21;6.50;99.90
60868;DHT22;46702;48.370;10.794;2022-12-22T04:51:47;6.50;99.90
60868;DHT22;46702;48.370;10.794;2022-12-22T04:54:12;6.50;99.90
60868;DHT22;46702;48.370;10.794;2022-12-22T04:56:38;6.60;99.90
60868;DHT22;46702;48.370;10.794;2022-12-22T04:59:03;6.60;99.90
60868;DHT22;46702;48.370;10.794;2022-12-22T05:01:29;6.60;99.90
60868;DHT22;46702;48.370;10.794;2022-12-22T05:03:54;6.60;99.90
60868;DHT22;46702;48.370;10.794;2022-12-22T05:06:20;6.60;99.90
60868;DHT22;46702;48.370;10.794;2022-12-22T05:08:46;6.60;99.90
60868;DHT22;46702;48.370;10.794;2022-12-22T05:11:11;6.60;99.90
60868;DHT22;46702;48.370;10.794;2022-12-22T05:13:37;6.60;99.90
60868;DHT22;46702;48.370;10.794;2022-12-22T05:16:05;6.50;99.90
60868;DHT22;46702;48.370;10.794;2022-12-22T05:18:31;6.40;99.90
60868;DHT22;46702;48.370;10.794;2022-12-22T05:20:57;6.50;99.90
60868;DHT22;46702;48.370;10.794;2022-12-22T05:23:22;6.50;99.90
60868;DHT22;46702;48.370;10.794;2022-12-22T05:25:48;6.50;99.90
60868;DHT22;46702;48.370;10.794;2022-12-22T05:28:14;6.60;99.90
60868;DHT22;46702;48.370;10.794;2022-12-22T05:30:40;6.60;99.90
60868;DHT22;46702;48.370;10.794;2022-12-22T05:33:05;6.80;99.90
60868;DHT22;46702;48.370;10.794;2022-12-22T05:35:31;7.00;99.90
60868;DHT22;46702;48.370;10.794;2022-12-22T05:37:57;6.90;99.90
60868;DHT22;46702;48.370;10.794;2022-12-22T05:40:22;7.00;99.90
60868;DHT22;46702;48.370;10.794;2022-12-22T05:42:48;7.00;99.90
60868;DHT22;46702;48.370;10.794;2022-12-22T05:45:19;6.90;99.90
60868;DHT22;46702;48.370;10.794;2022-12-22T05:47:47;6.90;99.90
60868;DHT22;46702;48.370;10.794;2022-12-22T05:50:15;6.90;99.90
60868;DHT22;46702;48.370;10.794;2022-12-22T05:52:41;6.90;99.90
60868;DHT22;46702;48.370;10.794;2022-12-22T05:55:07;7.00;99.90
60868;DHT22;46702;48.370;10.794;2022-12-22T05:57:33;7.00;99.90
60868;DHT22;46702;48.370;10.794;2022-12-22T05:59:59;7.10;99.90
60868;DHT22;46702;48.370;10.794;2022-12-22T06:02:25;7.10;99.90
60868;DHT22;46702;48.370;10.794;2022-12-22T06:04:51;7.10;99.90
60868;DHT22;46702;48.370;10.794;2022-12-22T06:07:16;7.10;99.90
60868;DHT22;46702;48.370;10.794;2022-12-22T06:09:42;7.10;99.90
60868;DHT22;46702;48.370;10.794;2022-12-22T06:12:08;7.00;99.90
60868;DHT22;46702;48.370;10.794;2022-12-22T06:14:34;7.20;99.90
60868;DHT22;46702;48.370;10.794;2022-12-22T06:16:59;7.20;99.90
60868;DHT22;46702;48.370;10.794;2022-12-22T06:19:25;7.20;99.90
60868;DHT22;46702;48.370;10.794;2022-12-22T06:21:50;7.20;99.90
60868;DHT22;46702;48.370;10.794;2022-12-22T06:24:16;7.20;99.90
60868;DHT22;46702;48.370;10.794;2022-12-22T06:26:42;7.20;99.90
60868;DHT22;46702;48.370;10.794;2022-12-22T06:29:07;7.20;99.90
60868;DHT22;46702;48.370;10.794;2022-12-22T06:31:33;7.20;99.90
60868;DHT22;46702;48.370;10.794;2022-12-22T06:33:59;7.10;99.90
60868;DHT22;46702;48.370;10.794;2022-12-22T06:36:24;7.20;99.90
60868;DHT22;46702;48.370;10.794;2022-12-22T06:38:50;7.30;99.90
60868;DHT22;46702;48.370;10.794;2022-12-22T06:41:15;7.20;99.90
60868;DHT22;46702;48.370;10.794;2022-12-22T06:44:01;7.20;99.90
60868;DHT22;46702;48.370;10.794;2022-12-22T06:46:27;7.20;99.90
60868;DHT22;46702;48.370;10.794;2022-12-22T06:48:52;7.20;99.90
60868;DHT22;46702;48.370;10.794;2022-12-22T06:51:18;7.20;99.90
60868;DHT22;46702;48.370;10.794;2022-12-22T06:53:43;7.30;99.90
60868;DHT22;46702;48.370;10.794;2022-12-22T06:56:09;7.20;99.90
60868;DHT22;46702;48.370;10.794;2022-12-22T06:58:34;7.10;99.90
60868;DHT22;46702;48.370;10.794;2022-12-22T07:01:00;7.00;99.90
60868;DHT22;46702;48.370;10.794;2022-12-22T07:03:26;7.10;99.90
60868;DHT22;46702;48.370;10.794;2022-12-22T07:05:51;7.10;99.90
60868;DHT22;46702;48.370;10.794;2022-12-22T07:08:17;7.10;99.90
60868;DHT22;46702;48.370;10.794;2022-12-22T07:10:43;7.30;99.90
60868;DHT22;46702;48.370;10.794;2022-12-22T07:13:31;7.30;99.90
60868;DHT22;46702;48.370;10.794;2022-12-22T07:15:59;7.30;99.90
60868;DHT22;46702;48.370;10.794;2022-12-22T07:18:25;7.40;99.90
60868;DHT22;46702;48.370;10.794;2022-12-22T07:20:51;7.40;99.90
60868;DHT22;46702;48.370;10.794;2022-12-22T07:23:17;7.50;99.90
60868;DHT22;46702;48.370;10.794;2022-12-22T07:25:42;7.40;99.90
60868;DHT22;46702;48.370;10.794;2022-12-22T07:28:08;7.60;99.90
60868;DHT22;46702;48.370;10.794;2022-12-22T07:30:34;7.60;99.90
60868;DHT22;46702;48.370;10.794;2022-12-22T07:33:04;8.00;99.90
60868;DHT22;46702;48.370;10.794;2022-12-22T07:35:30;8.10;99.90
60868;DHT22;46702;48.370;10.794;2022-12-22T07:37:55;8.30;99.90
60868;DHT22;46702;48.370;10.794;2022-12-22T07:40:21;8.30;99.90
60868;DHT22;46702;48.370;10.794;2022-12-22T07:42:47;8.20;99.90
60868;DHT22;46702;48.370;10.794;2022-12-22T07:45:17;8.20;99.90
60868;DHT22;46702;48.370;10.794;2022-12-22T07:47:44;8.40;99.90
60868;DHT22;46702;48.370;10.794;2022-12-22T07:50:12;8.60;99.90
60868;DHT22;46702;48.370;10.794;2022-12-22T07:52:55;8.40;99.90
60868;DHT22;46702;48.370;10.794;2022-12-22T07:55:22;8.30;99.90
60868;DHT22;46702;48.370;10.794;2022-12-22T07:57:48;8.40;99.90
60868;DHT22;46702;48.370;10.794;2022-12-22T08:00:15;8.20;99.90
60868;DHT22;46702;48.370;10.794;2022-12-22T08:02:41;8.30;99.90
60868;DHT22;46702;48.370;10.794;2022-12-22T08:05:07;8.40;99.90
60868;DHT22;46702;48.370;10.794;2022-12-22T08:07:33;8.40;99.90
60868;DHT22;46702;48.370;10.794;2022-12-22T08:09:58;8.50;99.90
60868;DHT22;46702;48.370;10.794;2022-12-22T08:12:24;8.30;99.90
60868;DHT22;46702;48.370;10.794;2022-12-22T08:14:50;8.40;99.90
60868;DHT22;46702;48.370;10.794;2022-12-22T08:17:16;8.50;99.90
60868;DHT22;46702;48.370;10.794;2022-12-22T08:19:41;8.40;99.90
60868;DHT22;46702;48.370;10.794;2022-12-22T08:22:07;8.60;99.90
60868;DHT22;46702;48.370;10.794;2022-12-22T08:24:35;8.60;99.90
60868;DHT22;46702;48.370;10.794;2022-12-22T08:27:06;8.60;99.90
60868;DHT22;46702;48.370;10.794;2022-12-22T08:29:35;8.60;99.90
60868;DHT22;46702;48.370;10.794;2022-12-22T08:32:03;8.80;99.90
60868;DHT22;46702;48.370;10.794;2022-12-22T08:34:29;8.70;99.90
60868;DHT22;46702;48.370;10.794;2022-12-22T08:36:57;8.70;99.90
60868;DHT22;46702;48.370;10.794;2022-12-22T08:39:25;8.70;99.90
60868;DHT22;46702;48.370;10.794;2022-12-22T08:41:52;8.80;99.90
60868;DHT22;46702;48.370;10.794;2022-12-22T08:44:23;8.70;99.90
60868;DHT22;46702;48.370;10.794;2022-12-22T08:46:50;8.90;99.90
60868;DHT22;46702;48.370;10.794;2022-12-22T08:49:15;8.80;99.90
60868;DHT22;46702;48.370;10.794;2022-12-22T08:51:41;8.70;99.90
60868;DHT22;46702;48.370;10.794;2022-12-22T08:54:08;8.70;99.90
60868;DHT22;46702;48.370;10.794;2022-12-22T08:56:34;8.70;99.90
60868;DHT22;46702;48.370;10.794;2022-12-22T08:59:02;8.80;99.90
60868;DHT22;46702;48.370;10.794;2022-12-22T09:01:30;8.80;99.90
60868;DHT22;46702;48.370;10.794;2022-12-22T09:03:57;8.70;99.90
60868;DHT22;46702;48.370;10.794;2022-12-22T09:06:23;8.70;99.90
60868;DHT22;46702;48.370;10.794;2022-12-22T09:08:57;8.80;99.90
60868;DHT22;46702;48.370;10.794;2022-12-22T09:11:24;8.70;99.90
60868;DHT22;46702;48.370;10.794;2022-12-22T09:13:54;8.60;99.90
60868;DHT22;46702;48.370;10.794;2022-12-22T09:16:20;8.70;99.90
60868;DHT22;46702;48.370;10.794;2022-12-22T09:18:47;8.80;99.90
60868;DHT22;46702;48.370;10.794;2022-12-22T09:21:13;9.00;99.90
60868;DHT22;46702;48.370;10.794;2022-12-22T09:23:39;9.00;99.90
60868;DHT22;46702;48.370;10.794;2022-12-22T09:26:08;9.00;99.90
60868;DHT22;46702;48.370;10.794;2022-12-22T09:28:34;9.10;99.90
60868;DHT22;46702;48.370;10.794;2022-12-22T09:31:00;9.10;99.90
60868;DHT22;46702;48.370;10.794;2022-12-22T09:33:26;9.30;99.90
60868;DHT22;46702;48.370;10.794;2022-12-22T09:35:52;9.30;99.90
60868;DHT22;46702;48.370;10.794;2022-12-22T09:38:17;9.40;99.90
60868;DHT22;46702;48.370;10.794;2022-12-22T09:40:43;9.50;99.90
60868;DHT22;46702;48.370;10.794;2022-12-22T09:43:13;9.50;99.90
60868;DHT22;46702;48.370;10.794;2022-12-22T09:45:40;9.60;99.90
60868;DHT22;46702;48.370;10.794;2022-12-22T09:48:09;9.60;99.90
60868;DHT22;46702;48.370;10.794;2022-12-22T09:50:38;9.50;99.90
60868;DHT22;46702;48.370;10.794;2022-12-22T09:53:06;9.50;99.90
60868;DHT22;46702;48.370;10.794;2022-12-22T09:55:39;9.60;99.90
60868;DHT22;46702;48.370;10.794;2022-12-22T09:58:18;9.60;99.90
60868;DHT22;46702;48.370;10.794;2022-12-22T10:00:49;9.60;99.90
60868;DHT22;46702;48.370;10.794;2022-12-22T10:03:42;9.50;99.90
60868;DHT22;46702;48.370;10.794;2022-12-22T10:06:33;9.50;99.90
60868;DHT22;46702;48.370;10.794;2022-12-22T10:09:10;9.30;99.90
60868;DHT22;46702;48.370;10.794;2022-12-22T10:11:38;9.20;99.90
60868;DHT22;46702;48.370;10.794;2022-12-22T10:14:04;9.00;99.90
60868;DHT22;46702;48.370;10.794;2022-12-22T10:16:29;9.10;99.90
60868;DHT22;46702;48.370;10.794;2022-12-22T10:19:07;9.00;99.90
60868;DHT22;46702;48.370;10.794;2022-12-22T10:21:33;9.00;99.90
60868;DHT22;46702;48.370;10.794;2022-12-22T10:23:59;8.90;99.90
60868;DHT22;46702;48.370;10.794;2022-12-22T10:26:28;9.00;99.90
60868;DHT22;46702;48.370;10.794;2022-12-22T10:31:31;9.10;99.90
60868;DHT22;46702;48.370;10.794;2022-12-22T10:34:11;9.50;99.90
60868;DHT22;46702;48.370;10.794;2022-12-22T10:36:37;9.60;99.90
60868;DHT22;46702;48.370;10.794;2022-12-22T10:39:08;9.70;99.90
60868;DHT22;46702;48.370;10.794;2022-12-22T10:44:17;9.60;99.90
60868;DHT22;46702;48.370;10.794;2022-12-22T10:46:49;9.50;99.90
60868;DHT22;46702;48.370;10.794;2022-12-22T10:51:54;9.40;99.90
60868;DHT22;46702;48.370;10.794;2022-12-22T10:54:33;9.30;99.90
60868;DHT22;46702;48.370;10.794;2022-12-22T10:57:24;9.30;99.90
60868;DHT22;46702;48.370;10.794;2022-12-22T10:59:50;9.20;99.90
60868;DHT22;46702;48.370;10.794;2022-12-22T11:04:49;8.90;99.90
60868;DHT22;46702;48.370;10.794;2022-12-22T11:07:15;8.80;99.90
60868;DHT22;46702;48.370;10.794;2022-12-22T11:09:41;8.80;99.90
60868;DHT22;46702;48.370;10.794;2022-12-22T11:23:12;9.00;99.90
60868;DHT22;46702;48.370;10.794;2022-12-22T11:31:36;9.30;99.90
60868;DHT22;46702;48.370;10.794;2022-12-22T11:34:19;9.20;99.90
60868;DHT22;46702;48.370;10.794;2022-12-22T11:45:23;9.30;99.90
60868;DHT22;46702;48.370;10.794;2022-12-22T11:48:17;9.30;99.90
60868;DHT22;46702;48.370;10.794;2022-12-22T11:50:53;9.50;99.90
60868;DHT22;46702;48.370;10.794;2022-12-22T11:56:49;9.40;99.90
60868;DHT22;46702;48.370;10.794;2022-12-22T11:59:26;9.50;99.90
60868;DHT22;46702;48.370;10.794;2022-12-22T12:04:54;9.70;99.90
60868;DHT22;46702;48.370;10.794;2022-12-22T12:07:38;9.80;99.90
60868;DHT22;46702;48.370;10.794;2022-12-22T12:10:41;9.80;99.90
60868;DHT22;46702;48.370;10.794;2022-12-22T12:15:53;9.70;99.90
60868;DHT22;46702;48.370;10.794;2022-12-22T12:26:36;9.70;99.90
60868;DHT22;46702;48.370;10.794;2022-12-22T12:29:21;9.70;99.90
60868;DHT22;46702;48.370;10.794;2022-12-22T12:32:12;9.80;99.90
60868;DHT22;46702;48.370;10.794;2022-12-22T12:34:43;9.80;99.90
60868;DHT22;46702;48.370;10.794;2022-12-22T12:37:29;9.90;99.90
60868;DHT22;46702;48.370;10.794;2022-12-22T12:43:01;10.00;99.90
60868;DHT22;46702;48.370;10.794;2022-12-22T12:45:32;9.90;99.90
60868;DHT22;46702;48.370;10.794;2022-12-22T12:50:47;10.00;99.90
60868;DHT22;46702;48.370;10.794;2022-12-22T12:53:13;10.00;99.90
60868;DHT22;46702;48.370;10.794;2022-12-22T12:58:09;10.00;99.90
60868;DHT22;46702;48.370;10.794;2022-12-22T13:03:34;10.10;99.90
60868;DHT22;46702;48.370;10.794;2022-12-22T13:06:00;10.10;99.90
60868;DHT22;46702;48.370;10.794;2022-12-22T13:08:27;10.00;99.90
60868;DHT22;46702;48.370;10.794;2022-12-22T13:18:48;10.00;99.90
60868;DHT22;46702;48.370;10.794;2022-12-22T13:21:17;10.10;99.90
60868;DHT22;46702;48.370;10.794;2022-12-22T13:24:00;10.10;99.90
60868;DHT22;46702;48.370;10.794;2022-12-22T13:26:35;10.20;99.90
60868;DHT22;46702;48.370;10.794;2022-12-22T13:29:16;10.20;99.90
60868;DHT22;46702;48.370;10.794;2022-12-22T13:31:45;10.10;99.90
60868;DHT22;46702;48.370;10.794;2022-12-22T13:36:48;10.00;99.90
60868;DHT22;46702;48.370;10.794;2022-12-22T13:39:14;10.10;99.90
60868;DHT22;46702;48.370;10.794;2022-12-22T13:41:42;10.10;99.90
60868;DHT22;46702;48.370;10.794;2022-12-22T13:44:18;10.20;99.90
60868;DHT22;46702;48.370;10.794;2022-12-22T13:46:46;10.20;99.90
60868;DHT22;46702;48.370;10.794;2022-12-22T13:49:17;10.30;99.90
60868;DHT22;46702;48.370;10.794;2022-12-22T13:51:45;10.20;99.90
60868;DHT22;46702;48.370;10.794;2022-12-22T13:54:19;10.10;99.90
60868;DHT22;46702;48.370;10.794;2022-12-22T13:56:49;10.20;99.90
60868;DHT22;46702;48.370;10.794;2022-12-22T13:59:28;10.20;99.90
60868;DHT22;46702;48.370;10.794;2022-12-22T14:04:32;10.10;99.90
60868;DHT22;46702;48.370;10.794;2022-12-22T14:07:10;10.20;99.90
60868;DHT22;46702;48.370;10.794;2022-12-22T14:09:35;10.30;99.90
60868;DHT22;46702;48.370;10.794;2022-12-22T14:14:35;10.10;99.90
60868;DHT22;46702;48.370;10.794;2022-12-22T14:17:03;10.20;99.90
60868;DHT22;46702;48.370;10.794;2022-12-22T14:19:36;10.30;99.90
60868;DHT22;46702;48.370;10.794;2022-12-22T14:22:09;10.20;99.90
60868;DHT22;46702;48.370;10.794;2022-12-22T14:24:50;10.20;99.90
60868;DHT22;46702;48.370;10.794;2022-12-22T14:27:38;10.10;99.90
60868;DHT22;46702;48.370;10.794;2022-12-22T14:30:17;10.40;99.90
60868;DHT22;46702;48.370;10.794;2022-12-22T14:32:45;10.30;99.90
60868;DHT22;46702;48.370;10.794;2022-12-22T14:38:16;10.30;99.90
60868;DHT22;46702;48.370;10.794;2022-12-22T14:40:44;10.20;99.90
60868;DHT22;46702;48.370;10.794;2022-12-22T14:45:41;10.20;99.90
60868;DHT22;46702;48.370;10.794;2022-12-22T14:48:08;10.20;99.90
60868;DHT22;46702;48.370;10.794;2022-12-22T14:50:47;10.20;99.90
60868;DHT22;46702;48.370;10.794;2022-12-22T14:53:14;10.10;99.90
60868;DHT22;46702;48.370;10.794;2022-12-22T14:55:41;10.10;99.90
60868;DHT22;46702;48.370;10.794;2022-12-22T14:58:32;10.00;99.90
60868;DHT22;46702;48.370;10.794;2022-12-22T15:01:19;10.30;99.90
60868;DHT22;46702;48.370;10.794;2022-12-22T15:04:18;10.30;99.90
60868;DHT22;46702;48.370;10.794;2022-12-22T15:06:46;10.30;99.90
60868;DHT22;46702;48.370;10.794;2022-12-22T15:11:40;10.20;99.90
60868;DHT22;46702;48.370;10.794;2022-12-22T15:14:16;10.20;99.90
60868;DHT22;46702;48.370;10.794;2022-12-22T15:16:46;10.30;99.90
60868;DHT22;46702;48.370;10.794;2022-12-22T15:19:17;10.20;99.90
60868;DHT22;46702;48.370;10.794;2022-12-22T15:21:47;10.30;99.90
60868;DHT22;46702;48.370;10.794;2022-12-22T15:24:15;10.20;99.90
60868;DHT22;46702;48.370;10.794;2022-12-22T15:26:42;10.30;99.90
60868;DHT22;46702;48.370;10.794;2022-12-22T15:29:08;10.40;99.90
60868;DHT22;46702;48.370;10.794;2022-12-22T15:31:34;10.30;99.90
60868;DHT22;46702;48.370;10.794;2022-12-22T15:34:02;10.30;99.90
60868;DHT22;46702;48.370;10.794;2022-12-22T15:36:28;10.20;99.90
60868;DHT22;46702;48.370;10.794;2022-12-22T15:38:53;10.20;99.90
60868;DHT22;46702;48.370;10.794;2022-12-22T15:41:19;10.20;99.90
60868;DHT22;46702;48.370;10.794;2022-12-22T15:43:45;10.10;99.90
60868;DHT22;46702;48.370;10.794;2022-12-22T15:46:14;10.10;99.90
60868;DHT22;46702;48.370;10.794;2022-12-22T15:48:41;10.20;99.90
60868;DHT22;46702;48.370;10.794;2022-12-22T15:51:16;10.00;99.90
60868;DHT22;46702;48.370;10.794;2022-12-22T15:53:43;9.90;99.90
60868;DHT22;46702;48.370;10.794;2022-12-22T15:56:14;10.00;99.90
60868;DHT22;46702;48.370;10.794;2022-12-22T15:58:44;10.00;99.90
60868;DHT22;46702;48.370;10.794;2022-12-22T16:01:11;10.00;99.90
60868;DHT22;46702;48.370;10.794;2022-12-22T16:03:37;9.90;99.90
60868;DHT22;46702;48.370;10.794;2022-12-22T16:06:03;9.80;99.90
60868;DHT22;46702;48.370;10.794;2022-12-22T16:08:36;9.90;99.90
60868;DHT22;46702;48.370;10.794;2022-12-22T16:11:02;10.00;99.90
60868;DHT22;46702;48.370;10.794;2022-12-22T16:13:29;10.00;99.90
60868;DHT22;46702;48.370;10.794;2022-12-22T16:15:56;10.00;99.90
60868;DHT22;46702;48.370;10.794;2022-12-22T16:18:21;9.90;99.90
60868;DHT22;46702;48.370;10.794;2022-12-22T16:20:48;10.00;99.90
60868;DHT22;46702;48.370;10.794;2022-12-22T16:23:33;10.00;99.90
60868;DHT22;46702;48.370;10.794;2022-12-22T16:26:00;10.00;99.90
60868;DHT22;46702;48.370;10.794;2022-12-22T16:28:26;10.10;99.90
60868;DHT22;46702;48.370;10.794;2022-12-22T16:30:51;10.00;99.90
60868;DHT22;46702;48.370;10.794;2022-12-22T16:33:18;10.00;99.90
60868;DHT22;46702;48.370;10.794;2022-12-22T16:35:44;9.90;99.90
60868;DHT22;46702;48.370;10.794;2022-12-22T16:38:09;9.90;99.90
60868;DHT22;46702;48.370;10.794;2022-12-22T16:40:41;9.90;99.90
60868;DHT22;46702;48.370;10.794;2022-12-22T16:43:12;9.90;99.90
60868;DHT22;46702;48.370;10.794;2022-12-22T16:45:43;9.90;99.90
60868;DHT22;46702;48.370;10.794;2022-12-22T16:48:14;9.80;99.90
60868;DHT22;46702;48.370;10.794;2022-12-22T16:50:44;9.80;99.90
60868;DHT22;46702;48.370;10.794;2022-12-22T16:53:11;9.80;99.90
60868;DHT22;46702;48.370;10.794;2022-12-22T16:55:39;9.70;99.90
60868;DHT22;46702;48.370;10.794;2022-12-22T16:58:05;9.70;99.90
60868;DHT22;46702;48.370;10.794;2022-12-22T17:00:33;9.60;99.90
60868;DHT22;46702;48.370;10.794;2022-12-22T17:03:23;9.80;99.90
60868;DHT22;46702;48.370;10.794;2022-12-22T17:05:55;9.70;99.90
60868;DHT22;46702;48.370;10.794;2022-12-22T17:08:32;9.70;99.90
60868;DHT22;46702;48.370;10.794;2022-12-22T17:11:01;9.60;99.90
60868;DHT22;46702;48.370;10.794;2022-12-22T17:13:28;9.60;99.90
60868;DHT22;46702;48.370;10.794;2022-12-22T17:15:54;9.60;99.90
60868;DHT22;46702;48.370;10.794;2022-12-22T17:18:22;9.60;99.90
60868;DHT22;46702;48.370;10.794;2022-12-22T17:20:51;9.60;99.90
60868;DHT22;46702;48.370;10.794;2022-12-22T17:23:29;9.50;99.90
60868;DHT22;46702;48.370;10.794;2022-12-22T17:25:57;9.60;99.90
60868;DHT22;46702;48.370;10.794;2022-12-22T17:28:23;9.60;99.90
60868;DHT22;46702;48.370;10.794;2022-12-22T17:30:49;9.60;99.90
60868;DHT22;46702;48.370;10.794;2022-12-22T17:33:16;9.60;99.90
60868;DHT22;46702;48.370;10.794;2022-12-22T17:35:43;9.50;99.90
60868;DHT22;46702;48.370;10.794;2022-12-22T17:38:13;9.50;99.90
60868;DHT22;46702;48.370;10.794;2022-12-22T17:40:39;9.50;99.90